createdAt,value
2023-05-15T00:00:17.965Z,66.06
2023-05-15T00:01:18.120Z,67.38
2023-05-15T00:02:18.327Z,67.28
2023-05-15T00:03:18.619Z,65.56
2023-05-15T00:04:18.721Z,66.37
2023-05-15T00:05:18.824Z,66.88
2023-05-15T00:06:19.014Z,66.37
2023-05-15T00:07:19.210Z,67.08
2023-05-15T00:08:19.353Z,66.80
2023-05-15T00:09:19.521Z,67.72
2023-05-15T00:10:19.697Z,67.00
2023-05-15T00:11:19.845Z,67.21
2023-05-15T00:12:20.064Z,65.79
2023-05-15T00:13:20.223Z,66.60
2023-05-15T00:14:20.377Z,68.02
2023-05-15T00:15:20.551Z,66.40
2023-05-15T00:16:20.765Z,65.89
2023-05-15T00:17:20.906Z,66.70
2023-05-15T00:18:21.070Z,66.80
2023-05-15T00:19:21.402Z,66.91
2023-05-15T00:20:21.404Z,67.11
2023-05-15T00:21:21.586Z,67.00
2023-05-15T00:22:21.749Z,67.21
2023-05-15T00:23:21.918Z,68.23
2023-05-15T00:24:22.091Z,66.70
2023-05-15T00:25:22.289Z,66.70
2023-05-15T00:26:22.447Z,67.21
2023-05-15T00:27:22.616Z,67.34
2023-05-15T00:28:22.806Z,67.65
2023-05-15T00:29:22.923Z,67.65
2023-05-15T00:30:23.115Z,68.05
2023-05-15T00:31:23.317Z,67.34
2023-05-15T00:32:23.483Z,66.02
2023-05-15T00:33:23.626Z,66.33
2023-05-15T00:34:23.794Z,67.75
2023-05-15T00:35:24.126Z,67.44
2023-05-15T00:36:24.166Z,68.05
2023-05-15T00:37:24.309Z,68.96
2023-05-15T00:38:24.481Z,66.23
2023-05-15T00:39:24.663Z,67.75
2023-05-15T00:40:24.856Z,67.44
2023-05-15T00:41:25.009Z,66.53
2023-05-15T00:42:25.173Z,66.63
2023-05-15T00:43:25.383Z,66.74
2023-05-15T00:44:25.551Z,67.85
2023-05-15T00:45:25.928Z,67.24
2023-05-15T00:46:25.908Z,67.34
2023-05-15T00:47:26.089Z,67.24
2023-05-15T00:48:26.248Z,67.34
2023-05-15T00:49:26.428Z,67.24
2023-05-15T00:50:26.583Z,67.44
2023-05-15T00:51:26.752Z,67.34
2023-05-15T00:52:26.957Z,66.74
2023-05-15T00:53:27.213Z,66.26
2023-05-15T00:54:27.257Z,66.46
2023-05-15T00:55:27.567Z,66.36
2023-05-15T00:56:27.638Z,67.78
2023-05-15T00:57:27.817Z,67.47
2023-05-15T00:58:27.976Z,67.17
2023-05-15T00:59:28.139Z,66.26
2023-05-15T01:00:28.347Z,65.95
2023-05-15T01:01:28.571Z,65.95
2023-05-15T01:02:28.801Z,67.07
2023-05-15T01:03:28.885Z,67.07
2023-05-15T01:04:29.063Z,67.17
2023-05-15T01:05:29.222Z,67.38
2023-05-15T01:06:29.397Z,67.07
2023-05-15T01:07:29.577Z,66.16
2023-05-15T01:08:29.755Z,65.95
2023-05-15T01:09:29.909Z,67.58
2023-05-15T01:10:30.080Z,69.30
2023-05-15T01:11:30.259Z,70.15
2023-05-15T01:12:30.422Z,70.25
2023-05-15T01:13:30.579Z,70.04
2023-05-15T01:14:30.751Z,69.95
2023-05-15T01:15:30.933Z,69.13
2023-05-15T01:16:31.099Z,68.52
2023-05-15T01:17:31.295Z,68.83
2023-05-15T01:18:31.523Z,69.47
2023-05-15T01:19:31.664Z,70.18
2023-05-15T01:20:31.773Z,69.87
2023-05-15T01:21:31.952Z,69.67
2023-05-15T01:22:32.128Z,69.06
2023-05-15T01:23:32.283Z,68.35
2023-05-15T01:24:32.447Z,68.45
2023-05-15T01:25:32.611Z,67.54
2023-05-15T01:26:32.809Z,67.84
2023-05-15T01:27:32.954Z,68.45
2023-05-15T01:28:33.108Z,68.25
2023-05-15T01:29:33.267Z,68.25
2023-05-15T01:30:33.467Z,68.05
2023-05-15T01:31:33.643Z,68.05
2023-05-15T01:32:33.843Z,67.54
2023-05-15T01:33:33.950Z,67.74
2023-05-15T01:34:34.124Z,68.96
2023-05-15T01:35:34.306Z,68.35
2023-05-15T01:36:34.476Z,67.33
2023-05-15T01:37:34.637Z,66.93
2023-05-15T01:38:34.790Z,67.13
2023-05-15T01:39:34.956Z,66.42
2023-05-15T01:40:35.167Z,66.42
2023-05-15T01:41:35.326Z,68.25
2023-05-15T01:42:35.495Z,68.05
2023-05-15T01:43:35.658Z,67.74
2023-05-15T01:44:35.890Z,68.15
2023-05-15T01:45:36.022Z,67.54
2023-05-15T01:46:36.269Z,67.77
2023-05-15T01:47:36.410Z,69.09
2023-05-15T01:48:36.600Z,68.18
2023-05-15T01:49:36.716Z,68.08
2023-05-15T01:50:36.914Z,67.57
2023-05-15T01:51:37.069Z,66.96
2023-05-15T01:52:37.290Z,66.76
2023-05-15T01:53:37.442Z,66.86
2023-05-15T01:54:37.626Z,66.55
2023-05-15T01:55:37.792Z,66.66
2023-05-15T01:56:37.963Z,66.76
2023-05-15T01:57:38.108Z,66.76
2023-05-15T01:58:38.323Z,66.76
2023-05-15T01:59:38.513Z,66.55
2023-05-15T02:00:38.660Z,67.27
2023-05-15T02:01:38.842Z,67.06
2023-05-15T02:02:39.065Z,66.15
2023-05-15T02:03:39.209Z,66.55
2023-05-15T02:04:39.322Z,66.25
2023-05-15T02:05:39.477Z,66.05
2023-05-15T02:06:39.679Z,66.46
2023-05-15T02:07:39.841Z,66.35
2023-05-15T02:08:40.035Z,65.84
2023-05-15T02:09:40.188Z,66.25
2023-05-15T02:10:40.388Z,66.66
2023-05-15T02:11:40.578Z,66.49
2023-05-15T02:12:40.767Z,66.99
2023-05-15T02:13:40.910Z,66.38
2023-05-15T02:14:41.128Z,66.69
2023-05-15T02:15:41.251Z,67.19
2023-05-15T02:16:41.601Z,66.38
2023-05-15T02:17:41.660Z,66.28
2023-05-15T02:18:41.839Z,66.49
2023-05-15T02:19:41.951Z,67.19
2023-05-15T02:20:42.159Z,66.79
2023-05-15T02:21:42.333Z,66.79
2023-05-15T02:22:42.513Z,67.19
2023-05-15T02:23:42.678Z,67.40
2023-05-15T02:24:42.851Z,67.60
2023-05-15T02:25:43.006Z,67.91
2023-05-15T02:26:43.205Z,67.91
2023-05-15T02:27:43.401Z,68.01
2023-05-15T02:28:43.562Z,67.71
2023-05-15T02:29:43.723Z,67.40
2023-05-15T02:30:43.879Z,67.40
2023-05-15T02:31:44.065Z,67.30
2023-05-15T02:32:44.230Z,66.99
2023-05-15T02:33:44.374Z,67.40
2023-05-15T02:34:44.568Z,66.79
2023-05-15T02:35:44.720Z,67.02
2023-05-15T02:36:44.930Z,66.72
2023-05-15T02:37:45.088Z,67.02
2023-05-15T02:38:45.271Z,66.72
2023-05-15T02:39:45.419Z,66.31
2023-05-15T02:40:45.644Z,66.72
2023-05-15T02:41:45.792Z,66.61
2023-05-15T02:42:45.961Z,66.11
2023-05-15T02:43:46.112Z,67.13
2023-05-15T02:44:46.289Z,66.72
2023-05-15T02:45:46.475Z,66.61
2023-05-15T02:46:46.630Z,67.13
2023-05-15T02:47:46.820Z,67.33
2023-05-15T02:48:46.979Z,67.22
2023-05-15T02:49:47.158Z,66.92
2023-05-15T02:50:47.357Z,67.53
2023-05-15T02:51:47.497Z,67.33
2023-05-15T02:52:47.678Z,67.63
2023-05-15T02:53:47.855Z,66.92
2023-05-15T02:54:48.045Z,68.14
2023-05-15T02:55:48.226Z,67.33
2023-05-15T02:56:48.402Z,67.13
2023-05-15T02:57:48.572Z,67.63
2023-05-15T02:58:48.756Z,67.33
2023-05-15T02:59:48.921Z,66.92
2023-05-15T03:00:49.108Z,66.72
2023-05-15T03:01:49.254Z,66.41
2023-05-15T03:02:49.476Z,66.61
2023-05-15T03:03:49.672Z,66.52
2023-05-15T03:04:49.801Z,66.82
2023-05-15T03:05:49.943Z,67.22
2023-05-15T03:06:50.144Z,66.92
2023-05-15T03:07:50.310Z,66.21
2023-05-15T03:08:50.502Z,66.41
2023-05-15T03:09:50.686Z,66.31
2023-05-15T03:10:50.827Z,66.72
2023-05-15T03:11:51.009Z,66.92
2023-05-15T03:12:51.198Z,67.22
2023-05-15T03:13:51.380Z,67.13
2023-05-15T03:14:51.547Z,67.53
2023-05-15T03:15:51.729Z,67.94
2023-05-15T03:16:51.939Z,67.83
2023-05-15T03:17:52.171Z,67.22
2023-05-15T03:18:52.333Z,67.22
2023-05-15T03:19:52.421Z,66.92
2023-05-15T03:20:52.588Z,67.13
2023-05-15T03:21:52.778Z,67.13
2023-05-15T03:22:52.930Z,67.02
2023-05-15T03:23:53.077Z,67.94
2023-05-15T03:24:53.251Z,67.43
2023-05-15T03:25:53.453Z,67.43
2023-05-15T03:26:53.601Z,67.13
2023-05-15T03:27:53.791Z,66.82
2023-05-15T03:28:53.948Z,66.52
2023-05-15T03:29:54.108Z,66.52
2023-05-15T03:30:54.292Z,66.41
2023-05-15T03:31:54.609Z,66.31
2023-05-15T03:32:54.676Z,66.31
2023-05-15T03:33:54.803Z,66.72
2023-05-15T03:34:54.985Z,67.63
2023-05-15T03:35:55.170Z,68.04
2023-05-15T03:36:55.371Z,68.24
2023-05-15T03:37:55.535Z,67.33
2023-05-15T03:38:55.740Z,67.33
2023-05-15T03:39:55.857Z,67.22
2023-05-15T03:40:56.028Z,67.30
2023-05-15T03:41:56.232Z,68.01
2023-05-15T03:42:56.393Z,67.91
2023-05-15T03:43:56.575Z,67.91
2023-05-15T03:44:56.760Z,67.71
2023-05-15T03:45:56.957Z,66.89
2023-05-15T03:46:57.267Z,67.40
2023-05-15T03:47:57.356Z,67.80
2023-05-15T03:48:57.453Z,67.77
2023-05-15T03:49:57.634Z,67.47
2023-05-15T03:50:57.816Z,68.59
2023-05-15T03:51:57.964Z,68.28
2023-05-15T03:52:58.160Z,67.77
2023-05-15T03:53:58.324Z,67.33
2023-05-15T03:54:58.488Z,67.44
2023-05-15T03:55:58.668Z,67.24
2023-05-15T03:56:58.840Z,67.03
2023-05-15T03:57:59.007Z,66.90
2023-05-15T03:58:59.178Z,66.80
2023-05-15T03:59:59.380Z,66.69
2023-05-15T04:00:59.553Z,66.77
2023-05-15T04:02:05.037Z,66.56
2023-05-15T04:03:00.968Z,66.46
2023-05-15T04:04:00.068Z,66.86
2023-05-15T04:05:00.291Z,66.23
2023-05-15T04:06:00.400Z,66.63
2023-05-15T04:07:00.707Z,66.53
2023-05-15T04:08:00.733Z,66.53
2023-05-15T04:09:00.904Z,66.23
2023-05-15T04:10:01.087Z,66.30
2023-05-15T04:11:01.257Z,66.60
2023-05-15T04:12:01.459Z,66.91
2023-05-15T04:13:01.640Z,67.82
2023-05-15T04:14:01.797Z,67.61
2023-05-15T04:15:01.986Z,67.00
2023-05-15T04:16:02.153Z,66.60
2023-05-15T04:17:02.325Z,66.57
2023-05-15T04:18:02.565Z,66.27
2023-05-15T04:19:02.708Z,65.96
2023-05-15T04:20:02.856Z,65.76
2023-05-15T04:21:03.040Z,65.36
2023-05-15T04:22:03.218Z,65.25
2023-05-15T04:23:03.409Z,65.36
2023-05-15T04:24:03.581Z,65.05
2023-05-15T04:25:03.770Z,65.15
2023-05-15T04:26:03.945Z,65.02
2023-05-15T04:27:04.120Z,65.22
2023-05-15T04:28:04.286Z,65.02
2023-05-15T04:29:04.988Z,65.02
2023-05-15T04:30:04.691Z,64.92
2023-05-15T04:31:04.810Z,64.82
2023-05-15T04:32:05.049Z,65.12
2023-05-15T04:33:05.229Z,65.02
2023-05-15T04:34:05.368Z,64.82
2023-05-15T04:35:05.494Z,65.09
2023-05-15T04:36:05.664Z,65.09
2023-05-15T04:37:05.818Z,64.79
2023-05-15T04:38:06.005Z,64.79
2023-05-15T04:39:06.167Z,64.89
2023-05-15T04:40:06.337Z,64.89
2023-05-15T04:41:06.511Z,64.79
2023-05-15T04:42:06.688Z,64.58
2023-05-15T04:43:06.862Z,64.69
2023-05-15T04:44:07.038Z,64.76
2023-05-15T04:45:07.446Z,64.65
2023-05-15T04:46:07.406Z,64.76
2023-05-15T04:47:07.563Z,64.65
2023-05-15T04:48:07.781Z,64.42
2023-05-15T04:49:07.899Z,64.32
2023-05-15T04:50:08.067Z,64.32
2023-05-15T04:51:08.246Z,64.02
2023-05-15T04:52:08.443Z,63.71
2023-05-15T04:53:08.576Z,63.51
2023-05-15T04:54:08.746Z,63.68
2023-05-15T04:55:08.946Z,63.38
2023-05-15T04:56:09.124Z,63.28
2023-05-15T04:57:09.298Z,63.08
2023-05-15T04:58:09.481Z,63.28
2023-05-15T04:59:09.640Z,63.28
2023-05-15T05:00:09.810Z,63.28
2023-05-15T05:01:10.038Z,63.15
2023-05-15T05:02:10.190Z,62.85
2023-05-15T05:03:10.447Z,62.44
2023-05-15T05:04:10.568Z,62.34
2023-05-15T05:05:10.713Z,62.44
2023-05-15T05:06:10.897Z,62.21
2023-05-15T05:07:11.035Z,62.21
2023-05-15T05:08:11.215Z,61.80
2023-05-15T05:09:11.418Z,61.30
2023-05-15T05:10:11.561Z,61.47
2023-05-15T05:11:11.706Z,61.47
2023-05-15T05:12:11.883Z,61.57
2023-05-15T05:13:12.065Z,61.44
2023-05-15T05:14:12.238Z,61.55
2023-05-15T05:15:12.411Z,61.65
2023-05-15T05:16:12.629Z,61.01
2023-05-15T05:17:12.738Z,60.71
2023-05-15T05:18:12.922Z,60.31
2023-05-15T05:19:13.156Z,60.28
2023-05-15T05:20:13.549Z,59.24
2023-05-15T05:21:13.421Z,58.28
2023-05-15T05:22:13.617Z,57.32
2023-05-15T05:23:13.750Z,56.19
2023-05-15T05:24:13.940Z,54.43
2023-05-15T05:25:14.115Z,54.07
2023-05-15T05:26:14.301Z,51.14
2023-05-15T05:27:14.456Z,51.42
2023-05-15T05:28:14.642Z,50.99
2023-05-15T05:29:14.822Z,49.96
2023-05-15T05:30:14.995Z,48.94
2023-05-15T05:31:15.233Z,47.84
2023-05-15T05:32:15.355Z,48.11
2023-05-15T05:33:15.508Z,47.72
2023-05-15T05:34:15.687Z,47.69
2023-05-15T05:35:15.900Z,47.87
2023-05-15T05:36:16.053Z,47.13
2023-05-15T05:37:16.231Z,45.93
2023-05-15T05:38:16.420Z,45.61
2023-05-15T05:39:16.580Z,45.29
2023-05-15T05:40:16.771Z,44.87
2023-05-15T05:41:16.915Z,43.75
2023-05-15T05:42:17.122Z,44.15
2023-05-15T05:43:17.274Z,43.82
2023-05-15T05:44:17.458Z,43.43
2023-05-15T05:45:17.599Z,44.12
2023-05-15T05:46:17.790Z,43.01
2023-05-15T05:47:18.031Z,42.71
2023-05-15T05:48:18.141Z,43.19
2023-05-15T05:49:18.316Z,42.97
2023-05-15T05:50:18.504Z,42.55
2023-05-15T05:51:18.666Z,42.03
2023-05-15T05:52:18.878Z,41.82
2023-05-15T05:53:19.062Z,41.60
2023-05-15T05:54:19.224Z,40.88
2023-05-15T05:55:19.372Z,41.26
2023-05-15T05:56:19.586Z,40.94
2023-05-15T05:57:19.763Z,39.73
2023-05-15T05:58:25.503Z,38.82
2023-05-15T05:59:21.094Z,38.80
2023-05-15T06:00:20.302Z,39.18
2023-05-15T06:01:20.443Z,39.26
2023-05-15T06:02:20.694Z,38.73
2023-05-15T06:03:20.918Z,37.92
2023-05-15T06:04:20.975Z,36.71
2023-05-15T06:05:21.172Z,36.40
2023-05-15T06:06:21.318Z,37.15
2023-05-15T06:07:21.487Z,37.43
2023-05-15T06:08:21.635Z,35.05
2023-05-15T06:09:21.827Z,35.43
2023-05-15T06:10:22.055Z,33.25
2023-05-15T06:11:23.783Z,33.23
2023-05-15T06:12:23.208Z,33.03
2023-05-15T06:13:22.560Z,32.14
2023-05-15T06:14:22.707Z,32.12
2023-05-15T06:15:23.014Z,31.33
2023-05-15T06:16:23.069Z,31.32
2023-05-15T06:17:23.290Z,30.91
2023-05-15T06:18:23.427Z,31.99
2023-05-15T06:19:23.619Z,30.80
2023-05-15T06:20:23.914Z,29.80
2023-05-15T06:21:23.941Z,30.29
2023-05-15T06:22:24.121Z,30.08
2023-05-15T06:23:24.500Z,29.97
2023-05-15T06:24:24.480Z,29.46
2023-05-15T06:25:24.618Z,30.04
2023-05-15T06:26:24.803Z,29.55
2023-05-15T06:27:24.993Z,28.06
2023-05-15T06:28:25.188Z,28.26
2023-05-15T06:29:25.338Z,28.05
2023-05-15T06:30:25.788Z,27.66
2023-05-15T06:31:25.729Z,28.63
2023-05-15T06:32:25.887Z,27.25
2023-05-15T06:33:26.097Z,27.73
2023-05-15T06:34:26.193Z,27.42
2023-05-15T06:35:26.350Z,27.62
2023-05-15T06:36:26.527Z,27.13
2023-05-15T06:37:26.724Z,27.80
2023-05-15T06:38:26.910Z,28.39
2023-05-15T06:39:27.055Z,26.13
2023-05-15T06:40:27.462Z,25.85
2023-05-15T06:41:27.437Z,26.92
2023-05-15T06:42:27.602Z,26.63
2023-05-15T06:43:27.777Z,26.62
2023-05-15T06:44:27.934Z,26.42
2023-05-15T06:45:28.419Z,26.31
2023-05-15T06:46:28.374Z,26.51
2023-05-15T06:47:28.550Z,26.31
2023-05-15T06:48:28.660Z,26.20
2023-05-15T06:49:28.865Z,25.42
2023-05-15T06:50:28.976Z,25.81
2023-05-15T06:51:29.141Z,26.48
2023-05-15T06:52:29.330Z,24.93
2023-05-15T06:53:29.477Z,26.18
2023-05-15T06:54:29.657Z,26.37
2023-05-15T06:55:29.808Z,25.20
2023-05-15T06:56:30.002Z,25.21
2023-05-15T06:57:30.235Z,25.03
2023-05-15T06:58:30.345Z,25.82
2023-05-15T06:59:30.485Z,26.31
2023-05-15T07:00:30.707Z,26.21
2023-05-15T07:01:30.875Z,26.20
2023-05-15T07:02:31.043Z,26.89
2023-05-15T07:03:31.686Z,25.70
2023-05-15T07:04:31.438Z,25.90
2023-05-15T07:05:31.529Z,26.29
2023-05-15T07:06:31.748Z,24.54
2023-05-15T07:07:31.897Z,25.80
2023-05-15T07:08:32.069Z,25.41
2023-05-15T07:09:32.242Z,24.63
2023-05-15T07:10:32.420Z,25.80
2023-05-15T07:11:32.646Z,25.40
2023-05-15T07:12:32.791Z,25.59
2023-05-15T07:13:32.959Z,24.82
2023-05-15T07:14:33.192Z,25.59
2023-05-15T07:15:33.329Z,25.01
2023-05-15T07:16:33.567Z,25.69
2023-05-15T07:17:33.859Z,25.38
2023-05-15T07:18:34.038Z,25.19
2023-05-15T07:19:34.107Z,25.29
2023-05-15T07:20:35.165Z,24.98
2023-05-15T07:21:34.401Z,24.98
2023-05-15T07:22:41.541Z,24.78
2023-05-15T07:23:35.706Z,24.67
2023-05-15T07:24:34.869Z,25.25
2023-05-15T07:25:35.056Z,25.34
2023-05-15T07:26:43.505Z,24.17
2023-05-15T07:27:36.431Z,24.67
2023-05-15T07:28:35.625Z,23.90
2023-05-15T07:29:35.781Z,24.60
2023-05-15T07:30:35.968Z,24.41
2023-05-15T07:31:36.129Z,24.13
2023-05-15T07:32:36.337Z,24.62
2023-05-15T07:33:36.453Z,25.40
2023-05-15T07:34:36.647Z,24.62
2023-05-15T07:35:36.810Z,24.94
2023-05-15T07:36:37.006Z,25.53
2023-05-15T07:37:37.195Z,26.72
2023-05-15T07:38:37.383Z,26.04
2023-05-15T07:39:37.522Z,26.73
2023-05-15T07:40:37.724Z,26.25
2023-05-15T07:41:37.855Z,26.64
2023-05-15T07:42:38.052Z,26.66
2023-05-15T07:43:38.260Z,26.37
2023-05-15T07:44:38.399Z,27.16
2023-05-15T07:45:38.610Z,27.27
2023-05-15T07:46:38.781Z,27.56
2023-05-15T07:47:38.945Z,27.97
2023-05-15T07:48:39.079Z,28.16
2023-05-15T07:49:39.229Z,27.87
2023-05-15T07:50:39.408Z,28.16
2023-05-15T07:51:39.592Z,28.47
2023-05-15T07:52:39.816Z,27.78
2023-05-15T07:53:40.007Z,28.29
2023-05-15T07:54:40.130Z,28.00
2023-05-15T07:55:40.327Z,28.29
2023-05-15T07:56:40.498Z,28.00
2023-05-15T07:57:40.676Z,28.49
2023-05-15T07:58:40.843Z,27.11
2023-05-15T07:59:40.984Z,27.90
2023-05-15T08:00:41.177Z,28.39
2023-05-15T08:01:41.326Z,27.80
2023-05-15T08:02:41.681Z,27.70
2023-05-15T08:03:41.854Z,27.78
2023-05-15T08:04:41.945Z,27.21
2023-05-15T08:05:42.039Z,27.11
2023-05-15T08:06:42.714Z,27.50
2023-05-15T08:07:42.413Z,27.50
2023-05-15T08:08:42.580Z,28.39
2023-05-15T08:09:42.750Z,28.40
2023-05-15T08:10:42.931Z,27.72
2023-05-15T08:11:43.148Z,28.01
2023-05-15T08:12:43.287Z,28.02
2023-05-15T08:13:43.469Z,27.94
2023-05-15T08:14:43.788Z,28.23
2023-05-15T08:15:43.833Z,28.43
2023-05-15T08:16:44.017Z,29.02
2023-05-15T08:17:44.238Z,28.64
2023-05-15T08:18:44.370Z,28.74
2023-05-15T08:19:44.503Z,28.25
2023-05-15T08:20:44.692Z,27.95
2023-05-15T08:21:44.893Z,28.15
2023-05-15T08:22:45.041Z,28.15
2023-05-15T08:23:45.182Z,28.44
2023-05-15T08:24:45.366Z,30.11
2023-05-15T08:25:45.550Z,28.83
2023-05-15T08:26:45.746Z,29.33
2023-05-15T08:27:45.895Z,29.62
2023-05-15T08:28:46.079Z,27.46
2023-05-15T08:29:46.298Z,27.66
2023-05-15T08:30:46.469Z,27.95
2023-05-15T08:31:46.663Z,29.22
2023-05-15T08:32:46.887Z,28.93
2023-05-15T08:33:46.988Z,28.15
2023-05-15T08:34:47.153Z,27.45
2023-05-15T08:35:47.370Z,27.24
2023-05-15T08:36:47.486Z,26.43
2023-05-15T08:37:47.680Z,27.28
2023-05-15T08:38:47.828Z,26.67
2023-05-15T08:39:48.023Z,26.06
2023-05-15T08:40:48.172Z,25.07
2023-05-15T08:41:48.339Z,24.78
2023-05-15T08:42:48.507Z,24.10
2023-05-15T08:43:48.728Z,24.49
2023-05-15T08:44:48.878Z,24.58
2023-05-15T08:45:49.041Z,23.72
2023-05-15T08:46:49.352Z,24.41
2023-05-15T08:47:49.452Z,24.91
2023-05-15T08:48:49.684Z,25.70
2023-05-15T08:49:49.761Z,25.72
2023-05-15T08:50:49.915Z,25.93
2023-05-15T08:51:50.083Z,26.32
2023-05-15T08:52:50.285Z,26.62
2023-05-15T08:53:50.459Z,28.09
2023-05-15T08:54:50.623Z,27.61
2023-05-15T08:55:50.796Z,27.21
2023-05-15T08:56:50.968Z,26.53
2023-05-15T08:57:51.168Z,27.31
2023-05-15T08:58:51.360Z,26.83
2023-05-15T08:59:51.534Z,27.04
2023-05-15T09:00:51.689Z,27.63
2023-05-15T09:01:51.866Z,27.15
2023-05-15T09:02:52.089Z,27.26
2023-05-15T09:03:52.216Z,27.56
2023-05-15T09:04:52.365Z,28.36
2023-05-15T09:05:52.557Z,27.87
2023-05-15T09:06:52.766Z,28.67
2023-05-15T09:07:52.914Z,27.88
2023-05-15T09:08:53.043Z,28.08
2023-05-15T09:09:53.242Z,28.68
2023-05-15T09:10:53.471Z,29.86
2023-05-15T09:11:53.613Z,29.28
2023-05-15T09:12:53.779Z,29.10
2023-05-15T09:13:53.934Z,31.16
2023-05-15T09:14:54.104Z,29.51
2023-05-15T09:15:54.260Z,29.92
2023-05-15T09:16:54.495Z,30.11
2023-05-15T09:17:54.649Z,31.01
2023-05-15T09:18:54.895Z,30.43
2023-05-15T09:19:55.001Z,31.13
2023-05-15T09:20:56.290Z,30.73
2023-05-15T09:21:55.313Z,31.04
2023-05-15T09:22:55.484Z,31.04
2023-05-15T09:23:55.664Z,30.75
2023-05-15T09:24:55.818Z,31.26
2023-05-15T09:25:55.981Z,31.06
2023-05-15T09:26:56.176Z,30.66
2023-05-15T09:27:56.334Z,31.56
2023-05-15T09:28:56.513Z,31.85
2023-05-15T09:29:56.684Z,31.06
2023-05-15T09:30:56.847Z,31.37
2023-05-15T09:31:57.071Z,31.37
2023-05-15T09:32:57.281Z,31.27
2023-05-15T09:33:57.370Z,31.96
2023-05-15T09:34:57.535Z,31.86
2023-05-15T09:35:57.736Z,32.95
2023-05-15T09:36:57.896Z,31.57
2023-05-15T09:37:58.057Z,31.96
2023-05-15T09:38:58.250Z,31.67
2023-05-15T09:39:58.430Z,31.96
2023-05-15T09:40:58.588Z,32.16
2023-05-15T09:41:58.771Z,32.75
2023-05-15T09:42:58.980Z,31.96
2023-05-15T09:43:59.130Z,31.86
2023-05-15T09:44:59.269Z,32.06
2023-05-15T09:45:59.531Z,32.04
2023-05-15T09:46:59.662Z,31.76
2023-05-15T09:48:00.044Z,31.67
2023-05-15T09:48:59.970Z,31.86
2023-05-15T09:50:00.181Z,32.04
2023-05-15T09:51:00.319Z,32.34
2023-05-15T09:52:00.562Z,33.03
2023-05-15T09:53:00.653Z,33.41
2023-05-15T09:54:00.866Z,32.72
2023-05-15T09:55:01.050Z,31.34
2023-05-15T09:56:01.215Z,31.32
2023-05-15T09:57:01.408Z,32.11
2023-05-15T09:58:01.564Z,31.72
2023-05-15T09:59:01.751Z,31.23
2023-05-15T10:00:01.924Z,30.43
2023-05-15T10:01:02.100Z,30.52
2023-05-15T10:02:02.411Z,29.93
2023-05-15T10:03:02.474Z,30.72
2023-05-15T10:04:02.597Z,30.62
2023-05-15T10:05:02.798Z,31.21
2023-05-15T10:06:03.001Z,31.00
2023-05-15T10:07:03.149Z,29.92
2023-05-15T10:08:03.301Z,30.82
2023-05-15T10:09:03.464Z,31.70
2023-05-15T10:10:03.734Z,31.69
2023-05-15T10:11:03.818Z,31.00
2023-05-15T10:12:04.050Z,31.79
2023-05-15T10:13:04.195Z,32.57
2023-05-15T10:14:04.358Z,32.26
2023-05-15T10:15:04.520Z,30.59
2023-05-15T10:16:04.778Z,30.30
2023-05-15T10:17:04.867Z,30.80
2023-05-15T10:18:05.163Z,30.41
2023-05-15T10:19:05.451Z,30.80
2023-05-15T10:20:05.376Z,31.77
2023-05-15T10:21:05.581Z,30.59
2023-05-15T10:22:05.726Z,31.67
2023-05-15T10:23:05.934Z,30.68
2023-05-15T10:24:06.090Z,30.97
2023-05-15T10:25:06.284Z,29.99
2023-05-15T10:26:06.528Z,30.47
2023-05-15T10:27:06.671Z,30.58
2023-05-15T10:28:06.901Z,31.76
2023-05-15T10:29:06.990Z,31.95
2023-05-15T10:30:07.187Z,30.38
2023-05-15T10:31:07.410Z,29.71
2023-05-15T10:32:07.556Z,29.61
2023-05-15T10:33:07.795Z,30.21
2023-05-15T10:34:07.909Z,30.90
2023-05-15T10:35:08.077Z,30.41
2023-05-15T10:36:08.306Z,30.49
2023-05-15T10:37:08.481Z,30.10
2023-05-15T10:38:08.637Z,30.69
2023-05-15T10:39:08.802Z,31.49
2023-05-15T10:40:08.950Z,30.80
2023-05-15T10:41:17.287Z,31.29
2023-05-15T10:42:10.397Z,30.90
2023-05-15T10:43:09.493Z,30.80
2023-05-15T10:44:09.669Z,31.00
2023-05-15T10:45:09.891Z,30.49
2023-05-15T10:46:10.032Z,30.79
2023-05-15T10:47:10.226Z,30.59
2023-05-15T10:48:10.413Z,31.97
2023-05-15T10:49:10.529Z,31.36
2023-05-15T10:50:10.753Z,30.87
2023-05-15T10:51:11.191Z,30.38
2023-05-15T10:52:11.050Z,31.36
2023-05-15T10:53:11.235Z,31.25
2023-05-15T10:54:11.411Z,30.76
2023-05-15T10:55:11.604Z,29.97
2023-05-15T10:56:11.852Z,30.74
2023-05-15T10:57:11.956Z,29.96
2023-05-15T10:58:12.138Z,29.38
2023-05-15T10:59:12.289Z,29.48
2023-05-15T11:00:12.493Z,30.07
2023-05-15T11:01:12.825Z,28.81
2023-05-15T11:02:12.845Z,29.49
2023-05-15T11:03:13.033Z,30.77
2023-05-15T11:04:13.306Z,29.69
2023-05-15T11:05:13.345Z,28.81
2023-05-15T11:06:13.577Z,28.69
2023-05-15T11:07:13.700Z,28.89
2023-05-15T11:08:13.932Z,29.68
2023-05-15T11:09:14.072Z,28.50
2023-05-15T11:10:14.288Z,29.19
2023-05-15T11:11:14.410Z,29.47
2023-05-15T11:12:14.631Z,28.78
2023-05-15T11:13:14.795Z,29.94
2023-05-15T11:14:14.967Z,28.27
2023-05-15T11:15:15.093Z,27.47
2023-05-15T11:16:15.328Z,28.75
2023-05-15T11:17:15.804Z,29.34
2023-05-15T11:18:15.736Z,27.56
2023-05-15T11:19:15.970Z,29.13
2023-05-15T11:20:16.002Z,29.14
2023-05-15T11:21:16.173Z,28.85
2023-05-15T11:22:16.344Z,28.55
2023-05-15T11:23:16.516Z,29.06
2023-05-15T11:24:16.684Z,28.88
2023-05-15T11:25:16.881Z,29.58
2023-05-15T11:26:17.048Z,30.08
2023-05-15T11:27:17.237Z,31.07
2023-05-15T11:28:17.434Z,30.88
2023-05-15T11:29:17.558Z,30.59
2023-05-15T11:30:17.747Z,31.18
2023-05-15T11:31:17.970Z,30.40
2023-05-15T11:32:18.089Z,30.69
2023-05-15T11:33:18.274Z,31.10
2023-05-15T11:34:18.462Z,32.38
2023-05-15T11:35:18.705Z,32.38
2023-05-15T11:36:18.815Z,32.10
2023-05-15T11:37:18.989Z,29.53
2023-05-15T11:38:19.150Z,29.65
2023-05-15T11:39:19.307Z,29.85
2023-05-15T11:40:19.497Z,29.66
2023-05-15T11:41:19.732Z,30.06
2023-05-15T11:42:19.853Z,31.34
2023-05-15T11:43:20.044Z,31.34
2023-05-15T11:44:20.192Z,31.54
2023-05-15T11:45:20.408Z,30.47
2023-05-15T11:46:20.647Z,30.96
2023-05-15T11:47:20.753Z,31.27
2023-05-15T11:48:20.946Z,30.98
2023-05-15T11:49:21.106Z,31.26
2023-05-15T11:50:21.269Z,31.16
2023-05-15T11:51:21.459Z,30.78
2023-05-15T11:52:21.628Z,31.17
2023-05-15T11:53:21.786Z,31.29
2023-05-15T11:54:21.942Z,32.07
2023-05-15T11:55:22.113Z,31.40
2023-05-15T11:56:22.286Z,33.20
2023-05-15T11:57:22.485Z,34.67
2023-05-15T11:58:22.636Z,33.61
2023-05-15T11:59:22.794Z,34.69
2023-05-15T12:00:23.127Z,35.00
2023-05-15T12:01:23.175Z,35.99
2023-05-15T12:02:23.385Z,36.80
2023-05-15T12:03:23.603Z,36.31
2023-05-15T12:04:23.871Z,39.79
2023-05-15T12:05:23.882Z,41.91
2023-05-15T12:06:24.049Z,43.49
2023-05-15T12:07:24.246Z,41.63
2023-05-15T12:08:24.445Z,43.34
2023-05-15T12:09:24.597Z,44.06
2023-05-15T12:10:25.079Z,41.09
2023-05-15T12:11:25.325Z,41.89
2023-05-15T12:12:25.180Z,42.91
2023-05-15T12:13:25.390Z,42.80
2023-05-15T12:14:25.535Z,42.51
2023-05-15T12:15:25.689Z,44.20
2023-05-15T12:16:25.949Z,44.99
2023-05-15T12:17:26.059Z,43.40
2023-05-15T12:18:26.219Z,43.70
2023-05-15T12:19:26.356Z,41.71
2023-05-15T12:20:26.789Z,43.60
2023-05-15T12:21:26.715Z,42.51
2023-05-15T12:22:26.929Z,42.21
2023-05-15T12:23:27.086Z,42.99
2023-05-15T12:24:27.243Z,41.60
2023-05-15T12:25:27.414Z,42.09
2023-05-15T12:26:27.602Z,41.20
2023-05-15T12:27:27.750Z,42.09
2023-05-15T12:28:27.924Z,42.57
2023-05-15T12:29:28.100Z,42.57
2023-05-15T12:30:28.346Z,39.98
2023-05-15T12:31:28.516Z,40.19
2023-05-15T12:32:28.629Z,39.07
2023-05-15T12:33:28.780Z,39.87
2023-05-15T12:34:29.018Z,40.47
2023-05-15T12:35:29.129Z,41.85
2023-05-15T12:36:29.310Z,43.24
2023-05-15T12:37:29.453Z,43.74
2023-05-15T12:38:29.651Z,45.92
2023-05-15T12:39:29.822Z,44.23
2023-05-15T12:40:30.037Z,44.53
2023-05-15T12:41:30.143Z,45.12
2023-05-15T12:42:30.313Z,44.53
2023-05-15T12:43:30.524Z,45.23
2023-05-15T12:44:30.681Z,42.94
2023-05-15T12:45:30.853Z,44.33
2023-05-15T12:46:31.059Z,43.34
2023-05-15T12:47:31.197Z,43.93
2023-05-15T12:48:31.335Z,43.64
2023-05-15T12:49:31.645Z,44.01
2023-05-15T12:50:31.659Z,43.71
2023-05-15T12:51:31.852Z,42.63
2023-05-15T12:52:32.031Z,42.72
2023-05-15T12:53:32.177Z,41.91
2023-05-15T12:54:32.335Z,41.61